createdAt,value
2018-04-18T00:02:16.123Z,21.85
2018-04-18T00:04:46.060Z,21.33
2018-04-18T00:07:15.129Z,18.42
2018-04-18T00:09:44.944Z,20.50
2018-04-18T00:12:14.843Z,18.67
2018-04-18T00:14:44.663Z,18.27
2018-04-18T00:17:14.487Z,20.77
2018-04-18T00:19:44.674Z,20.58
2018-04-18T00:22:13.780Z,23.30
2018-04-18T00:24:43.087Z,19.35
2018-04-18T00:27:12.894Z,19.67
2018-04-18T00:29:41.954Z,19.85
2018-04-18T00:32:11.082Z,19.62
2018-04-18T00:34:40.169Z,19.17
2018-04-18T00:37:09.670Z,19.58
2018-04-18T00:39:38.778Z,20.70
2018-04-18T00:42:07.896Z,19.58
2018-04-18T00:44:36.940Z,19.80
2018-04-18T00:47:06.016Z,22.15
2018-04-18T00:49:35.435Z,18.75
2018-04-18T00:52:04.691Z,22.50
2018-04-18T00:54:33.735Z,24.02
2018-04-18T00:57:02.886Z,20.85
2018-04-18T00:59:31.915Z,20.70
2018-04-18T01:02:01.224Z,18.75
2018-04-18T01:04:30.294Z,23.90
2018-04-18T01:06:59.499Z,22.08
2018-04-18T01:09:28.617Z,23.95
2018-04-18T01:11:57.788Z,22.02
2018-04-18T01:14:26.937Z,20.60
2018-04-18T01:16:55.984Z,21.95
2018-04-18T01:19:25.102Z,21.70
2018-04-18T01:21:54.255Z,20.58
2018-04-18T01:25:42.696Z,23.25
2018-04-18T01:28:13.321Z,23.92
2018-04-18T01:30:43.235Z,23.48
2018-04-18T01:33:12.420Z,22.13
2018-04-18T01:35:41.569Z,20.73
2018-04-18T01:38:10.667Z,20.05
2018-04-18T01:40:39.934Z,23.48
2018-04-18T01:43:09.416Z,19.45
2018-04-18T01:45:38.784Z,21.10
2018-04-18T01:48:07.851Z,24.48
2018-04-18T01:50:36.904Z,22.02
2018-04-18T01:53:05.982Z,20.25
2018-04-18T01:55:35.027Z,21.52
2018-04-18T01:58:04.124Z,22.48
2018-04-18T02:00:33.265Z,22.10
2018-04-18T02:03:02.372Z,20.55
2018-04-18T02:05:31.477Z,20.33
2018-04-18T02:08:01.338Z,20.33
2018-04-18T02:10:30.444Z,20.25
2018-04-18T02:13:00.245Z,20.67
2018-04-18T02:15:29.371Z,21.20
2018-04-18T02:17:58.403Z,22.33
2018-04-18T02:20:28.244Z,21.60
2018-04-18T02:22:57.371Z,20.08
2018-04-18T02:25:26.968Z,20.50
2018-04-18T02:27:56.035Z,20.20
2018-04-18T02:30:25.355Z,20.00
2018-04-18T02:32:54.442Z,20.85
2018-04-18T02:35:23.573Z,23.50
2018-04-18T02:37:52.943Z,21.05
2018-04-18T02:40:22.072Z,22.37
2018-04-18T02:42:51.162Z,22.13
2018-04-18T02:45:20.199Z,21.80
2018-04-18T02:47:50.025Z,20.58
2018-04-18T02:50:19.171Z,22.08
2018-04-18T02:52:49.050Z,20.85
2018-04-18T02:55:18.134Z,21.45
2018-04-18T02:57:47.175Z,22.42
2018-04-18T03:00:17.020Z,22.20
2018-04-18T03:02:46.858Z,22.33
2018-04-18T03:05:16.238Z,23.25
2018-04-18T03:07:46.315Z,22.33
2018-04-18T03:10:15.342Z,22.55
2018-04-18T03:12:45.195Z,26.55
2018-04-18T03:15:14.214Z,25.10
2018-04-18T03:17:43.254Z,25.95
2018-04-18T03:20:13.091Z,24.55
2018-04-18T03:22:42.184Z,25.73
2018-04-18T03:25:11.241Z,25.90
2018-04-18T03:27:41.109Z,25.17
2018-04-18T03:30:10.251Z,27.90
2018-04-18T03:32:40.321Z,25.12
2018-04-18T03:35:09.406Z,25.00
2018-04-18T03:37:38.457Z,24.15
2018-04-18T03:40:07.504Z,26.65
2018-04-18T03:42:37.646Z,28.33
2018-04-18T03:45:06.714Z,26.27
2018-04-18T03:47:39.171Z,23.85
2018-04-18T03:50:08.244Z,27.20
2018-04-18T03:52:38.043Z,23.85
2018-04-18T03:55:07.280Z,24.35
2018-04-18T03:57:36.369Z,24.73
2018-04-18T04:00:05.445Z,27.52
2018-04-18T04:02:35.373Z,32.92
2018-04-18T04:05:05.272Z,26.25
2018-04-18T04:07:35.317Z,22.92
2018-04-18T04:10:04.524Z,23.90
2018-04-18T04:12:33.651Z,24.48
2018-04-18T04:15:02.774Z,27.20
2018-04-18T04:17:53.472Z,29.27
2018-04-18T04:22:34.436Z,24.85
2018-04-18T04:25:04.170Z,25.90
2018-04-18T04:27:34.613Z,27.08
2018-04-18T04:30:03.771Z,28.77
2018-04-18T04:32:33.223Z,27.23
2018-04-18T04:35:02.437Z,26.60
2018-04-18T04:37:31.630Z,25.45
2018-04-18T04:40:00.797Z,24.95
2018-04-18T04:42:30.617Z,24.40
2018-04-18T04:45:01.076Z,23.70
2018-04-18T04:47:30.151Z,22.92
2018-04-18T04:49:59.212Z,23.50
2018-04-18T04:52:28.243Z,22.62
2018-04-18T04:54:57.375Z,19.77
2018-04-18T04:57:28.463Z,21.65
2018-04-18T04:59:57.561Z,44.70
2018-04-18T05:02:29.542Z,23.80
2018-04-18T05:04:59.784Z,22.27
2018-04-18T05:07:28.981Z,22.52
2018-04-18T05:09:59.751Z,22.02
2018-04-18T05:12:29.654Z,23.73
2018-04-18T05:14:58.799Z,20.55
2018-04-18T05:17:28.708Z,20.52
2018-04-18T05:19:58.570Z,21.87
2018-04-18T05:22:28.117Z,24.27
2018-04-18T05:24:57.978Z,23.75
2018-04-18T05:27:27.101Z,20.83
2018-04-18T05:29:57.240Z,23.50
2018-04-18T05:32:27.175Z,28.40
2018-04-18T05:34:59.550Z,22.40
2018-04-18T05:37:29.484Z,23.98
2018-04-18T05:39:58.668Z,24.08
2018-04-18T05:42:27.821Z,23.10
2018-04-18T05:44:56.982Z,26.10
2018-04-18T05:47:32.254Z,27.37
2018-04-18T05:50:02.965Z,27.60
2018-04-18T05:52:32.174Z,25.62
2018-04-18T05:55:03.330Z,22.80
2018-04-18T05:57:32.458Z,27.17
2018-04-18T06:00:04.617Z,22.48
2018-04-18T06:02:34.506Z,23.50
2018-04-18T06:05:05.902Z,22.00
2018-04-18T06:07:35.039Z,26.00
2018-04-18T06:10:05.303Z,22.55
2018-04-18T06:12:35.515Z,24.40
2018-04-18T06:15:05.527Z,20.88
2018-04-18T06:17:34.707Z,25.40
2018-04-18T06:20:04.883Z,25.37
2018-04-18T06:22:34.052Z,23.63
2018-04-18T06:25:05.700Z,26.50
2018-04-18T06:27:35.741Z,23.53
2018-04-18T06:30:05.632Z,24.70
2018-04-18T06:32:35.502Z,24.73
2018-04-18T06:35:04.689Z,24.33
2018-04-18T06:37:34.633Z,26.13
2018-04-18T06:40:05.750Z,25.23
2018-04-18T06:42:34.949Z,25.13
2018-04-18T06:45:05.147Z,24.50
2018-04-18T06:47:34.321Z,27.23
2018-04-18T06:50:06.965Z,23.93
2018-04-18T06:52:36.127Z,23.70
2018-04-18T06:55:06.475Z,23.53
2018-04-18T06:57:36.102Z,23.37
2018-04-18T07:00:06.656Z,25.63
2018-04-18T07:02:36.178Z,26.33
2018-04-18T07:05:05.377Z,23.60
2018-04-18T07:07:35.332Z,24.40
2018-04-18T07:10:04.786Z,24.27
2018-04-18T07:12:34.842Z,26.03
2018-04-18T07:15:05.627Z,24.90
2018-04-18T07:17:34.986Z,24.93
2018-04-18T07:20:04.372Z,22.73
2018-04-18T07:22:33.694Z,24.07
2018-04-18T07:25:03.664Z,25.83
2018-04-18T07:27:37.094Z,23.00
2018-04-18T07:30:07.391Z,23.53
2018-04-18T07:32:38.454Z,24.17
2018-04-18T07:35:08.653Z,24.40
2018-04-18T07:37:39.428Z,22.70
2018-04-18T07:40:09.322Z,21.93
2018-04-18T07:42:39.680Z,21.60
2018-04-18T07:45:09.519Z,20.90
2018-04-18T07:47:38.707Z,19.60
2018-04-18T07:50:08.857Z,19.27
2018-04-18T07:52:38.894Z,19.83
2018-04-18T07:55:08.287Z,17.07
2018-04-18T07:57:37.951Z,18.80
2018-04-18T08:00:08.023Z,18.60
2018-04-18T08:02:37.395Z,16.80
2018-04-18T08:05:07.474Z,18.17
2018-04-18T08:07:36.723Z,19.90
2018-04-18T08:10:09.706Z,15.90
2018-04-18T08:25:54.282Z,10.43
2018-04-18T08:28:23.425Z,17.80
2018-04-18T08:30:52.556Z,15.90
2018-04-18T08:33:22.531Z,9.17
2018-04-18T08:35:51.808Z,9.60
2018-04-18T08:38:21.875Z,8.47
2018-04-18T08:40:52.656Z,9.33
2018-04-18T08:43:22.158Z,8.10
2018-04-18T08:45:51.530Z,9.57
2018-04-18T08:48:22.044Z,8.43
2018-04-18T08:50:56.244Z,6.97
2018-04-18T08:53:25.817Z,8.93
2018-04-18T08:55:55.426Z,10.30
2018-04-18T08:58:24.714Z,7.50
2018-04-18T09:00:53.949Z,8.20
2018-04-18T09:03:26.773Z,10.70
2018-04-18T09:05:56.067Z,13.53
2018-04-18T09:08:26.167Z,10.23
2018-04-18T09:10:56.919Z,9.73
2018-04-18T09:13:26.041Z,9.47
2018-04-18T09:15:56.991Z,10.30
2018-04-18T09:18:27.759Z,10.63
2018-04-18T09:20:57.762Z,12.13
2018-04-18T09:23:26.988Z,9.23
2018-04-18T09:25:58.891Z,9.70
2018-04-18T09:28:28.389Z,9.67
2018-04-18T09:30:57.611Z,12.70
2018-04-18T09:33:27.580Z,14.37
2018-04-18T09:35:57.753Z,13.33
2018-04-18T09:38:26.847Z,11.50
2018-04-18T09:40:58.415Z,11.40
2018-04-18T09:43:27.800Z,13.40
2018-04-18T09:45:56.940Z,11.07
2018-04-18T09:48:27.390Z,10.10
2018-04-18T09:50:56.788Z,17.10
2018-04-18T09:53:26.102Z,16.57
2018-04-18T09:55:55.334Z,18.50
2018-04-18T09:58:25.525Z,18.43
2018-04-18T10:00:57.309Z,18.33
2018-04-18T10:03:26.682Z,13.40
2018-04-18T10:05:55.988Z,11.83
2018-04-18T10:08:25.459Z,13.27
2018-04-18T10:10:56.761Z,10.63
2018-04-18T10:13:31.270Z,11.97
2018-04-18T10:16:01.902Z,12.27
2018-04-18T10:18:31.094Z,8.83
2018-04-18T10:21:01.013Z,12.63
2018-04-18T10:23:31.257Z,11.47
2018-04-18T10:26:01.756Z,10.27
2018-04-18T10:28:31.310Z,11.77
2018-04-18T10:31:02.187Z,11.13
2018-04-18T10:33:32.429Z,13.73
2018-04-18T10:36:01.920Z,10.20
2018-04-18T10:38:31.828Z,12.20
2018-04-18T10:41:01.188Z,12.33
2018-04-18T10:43:30.447Z,10.53
2018-04-18T10:45:59.547Z,9.43
2018-04-18T10:48:29.454Z,9.00
2018-04-18T10:50:58.620Z,12.20
2018-04-18T10:53:28.854Z,10.60
2018-04-18T10:55:58.023Z,9.10
2018-04-18T10:58:27.370Z,10.07
2018-04-18T11:00:56.517Z,12.90
2018-04-18T11:03:25.655Z,9.30
2018-04-18T11:05:55.485Z,10.10
2018-04-18T11:08:24.852Z,10.27
2018-04-18T11:10:56.329Z,8.93
2018-04-18T11:13:29.722Z,9.73
2018-04-18T11:16:00.656Z,12.33
2018-04-18T11:18:30.813Z,12.00
2018-04-18T11:21:35.179Z,8.03
2018-04-18T11:24:16.083Z,11.20
2018-04-18T11:26:47.468Z,11.60
2018-04-18T11:29:22.762Z,10.53
2018-04-18T11:31:52.731Z,9.67
2018-04-18T11:34:22.325Z,11.43
2018-04-18T11:36:51.500Z,8.20
2018-04-18T11:39:21.366Z,8.07
2018-04-18T11:41:51.512Z,12.07
2018-04-18T11:44:20.689Z,11.33
2018-04-18T11:46:50.712Z,9.97
2018-04-18T11:49:20.791Z,9.43
2018-04-18T11:51:50.025Z,11.70
2018-04-18T11:54:19.949Z,9.87
2018-04-18T11:56:50.009Z,9.43
2018-04-18T11:59:19.628Z,12.23
2018-04-18T12:01:49.996Z,10.90
2018-04-18T12:04:19.997Z,9.70
2018-04-18T12:06:49.605Z,9.60
2018-04-18T12:09:20.515Z,10.20
2018-04-18T12:11:51.675Z,8.27
2018-04-18T12:14:21.094Z,8.73
2018-04-18T12:16:51.571Z,8.60
2018-04-18T12:19:20.844Z,10.13
2018-04-18T12:21:50.392Z,8.63
2018-04-18T12:24:20.282Z,8.17
2018-04-18T12:26:49.691Z,15.30
2018-04-18T12:29:19.411Z,13.97
2018-04-18T12:31:51.447Z,12.10
